Airfield :
LOGIN :

Register | Disclaimer

   EN    FR    IT 

 










Legend :    VFR   Marginal VFR   IFR   Intensive IFR   Very Intensive IFR
Visi :
Ceiling :
>= 8 km
>= 3000ft
5 to 8 km
1000 to 3000 ft
1500m to 5 km
500 to 1000 ft
800 to 1500m
200 to 500 ft
< 800m
< 200 ft
Symbols :   Thunderstorms  Fog  Heavy snow  Heavy precipitations  Wind > 20 kt
SIGMETs :     Misc.  Thunderstorms  Icing  Turbulence  Mountain Waves  Volcanic Ashes






- Airport Elevation : 306 ft
- IATA code : EMA


EGNX - Nottingham East Midlands

CURRENT METAR :
  • 080250Z 35006KT 320V040 CAVOK 19/16 Q1020

EXPIRED METARs :
  • 080220Z 33005KT 300V010 CAVOK 19/17 Q1020
  • 080150Z 31006KT CAVOK 19/18 Q1019
  • 080120Z 29005KT CAVOK 19/17 Q1019
  • 080050Z 29005KT CAVOK 19/17 Q1019
  • 080020Z 28005KT CAVOK 20/18 Q1019

TAF TAF EGNX
Valid from the 08 at 00:00 until the 09 at 00:00 UTC


072256Z 0800/0824 28005KT CAVOK
PROB30
TEMPO 0803/0807 7000 BKN009
BECMG 0808/0811 05011KT
PROB40 0821/0824 BKN014
ATIS : +44 1332 852 852 (ext 3201)



MET'MAP, your aeronautical weather chart ! - Copyright ORBIFLY December 2007 - Disclaimer

ORBIFLY MET'MAP TEAM :

Programming & Development : Alexandra Zaïnal
Concept & original design : Baudouin d'Aumeries
Assistance for programming : Marc-Olivier Méhu
Technical & hardware support : Manuel Goepfert

Contact : metmap@orbifly.com




SOURCES & CREDITS :

   NOAA